首页
METAR-TAF:

METAR-TAF

机场 :

海參崴國際機場

海參崴, 俄罗斯

纬度: 43-07N, 经度: 131-56E, 海拔: 184米

当前天气观测

该预报发布于14分钟前的21:30 UTC
风速8节,风向东转东南
温度 12°C
湿度 100%
气压 1016 hPa
能見度: 8000
多云层高于1800英尺, 积雨云.
小阵雨

METAR: UHWW 222130Z 11004MPS 8000 -SHRA BKN018CB 12/12 Q1016 R25L/290060 NOSIG RMK QFE761

时间: 07:44 (21:44 UTC)

预报

该预报发布于1小时和44分钟前的20:00 UTC
预报有效从22日的 21点(UTC)到 23日的 21点(UTC)
风速6节,风向
能見度: 4000
多云层高于1100英尺
多云层高于2000英尺, 积雨云.
小阵雨
短暂存在
从 22日的 21点(UTC)到 23日的 08点(UTC)
风速14节,风向,有时为23节阵风
雷暴, 小雨
成为
从 23日的 08点(UTC)到 23日的 10点(UTC)
风速6节,风向西北
能见度10公里或以上

TAF: UHWW 222000Z 2221/2321 18003MPS 4000 -SHRA BKN011 BKN020CB TEMPO 2221/2308 18007G12MPS -TSRA BECMG 2308/2310 32003MPS 9999 NSW

超过4000个机场的气象观测和天气预报(METAR&TAF报告)。

可查询的气象台以黄色和红色小点在地图上表示。

将鼠标移到小点上方,可查看气象台名称。

然后点击查看天气观测和预报。

如需切换地图:点击带黑十字的绿色按钮放大地图;点击带横线的绿色按钮缩小地图;或者点击绿色箭头查看邻近地区的地图。


METAR-TAF: